Louise Cenac — WDI3433 — position and weather

sailwx.info

Track history (hours):
 
Tides and Currents Weather Stations Pressure Air Temp Water Temp Dewpoint Dewpoint Depression Visibility Wind Speed Wind Dir Waves Ship Positions

Louise Cenac

Owner: Cenac Marine Services, Houma, LA. More information available from US FCC via Universal Licensing System and Coast Guard Vessel Documentation Center.

Last reported at 2017-Sep-14 15:44 UTC. Time now 2017-Sep-21 05:26 UTC.
Position N 30°03' W 093°43'.

Length 22 m; draft 3.3 m.

Type: Tug. MMSI: 367688280.

Date/timePositionNaut miles runAvg speedWind from/ knotsBaromVisibWave heightAir tempDewpointWater temp
2017-Sep-14 15:44N 30°03' W 093°43'2 6.5
2017-Sep-14 15:28N 30°04' W 093°41'3 6.7
2017-Sep-14 15:01N 30°04' W 093°38'3 5.9
2017-Sep-14 14:30N 30°04' W 093°34'3 5.6
2017-Sep-14 14:01N 30°04' W 093°31'3 5.7
2017-Sep-14 13:30N 30°04' W 093°28'3 5.5
2017-Sep-14 12:56N 30°04' W 093°24'2 4.8
2017-Sep-14 12:30N 30°04' W 093°22'2 3.8
2017-Sep-14 12:00N 30°05' W 093°20'2 4.1
2017-Sep-14 11:30N 30°06' W 093°19'2 4.9
2017-Sep-14 11:01N 30°04' W 093°16'1 2.3
2017-Sep-14 10:30N 30°03' W 093°16'1 2.0
2017-Sep-14 10:00N 30°02' W 093°16'0 0.0
2017-Sep-14 09:29N 30°03' W 093°16'0 0.1
2017-Sep-14 09:00N 30°02' W 093°16'0 0.4
2017-Sep-14 08:30N 30°02' W 093°15'2 4.7
2017-Sep-14 08:00N 30°01' W 093°14'3 5.8
2017-Sep-14 07:30N 29°58' W 093°12'3 5.9
2017-Sep-14 07:00N 29°56' W 093°09'3 5.9
2017-Sep-14 06:29N 29°56' W 093°06'  
2017-Sep-09 18:13N 29°56' W 093°02'2 7.0
2017-Sep-09 17:59N 29°56' W 093°04'2 3.7
2017-Sep-09 17:30N 29°56' W 093°06'3 6.8
2017-Sep-09 17:00N 29°56' W 093°10'4 7.0
2017-Sep-09 16:30N 29°59' W 093°12'3 6.6
2017-Sep-09 16:00N 30°02' W 093°14'3 6.3
2017-Sep-09 15:30N 30°04' W 093°16'3 6.0
2017-Sep-09 15:00N 30°06' W 093°19'4 7.1
2017-Sep-09 14:29N 30°09' W 093°20'1 2.1
2017-Sep-09 13:58N 30°10' W 093°19'0 0.0
2017-Sep-09 13:03N 30°10' W 093°19'0 0.1
2017-Sep-09 13:00N 30°10' W 093°19'0 0.0
2017-Sep-09 12:30N 30°10' W 093°19'0 0.0
2017-Sep-09 12:00N 30°10' W 093°19'0 0.0
2017-Sep-09 11:29N 30°10' W 093°19'0 0.0
2017-Sep-09 10:57N 30°10' W 093°19'0 0.0
2017-Sep-09 10:26N 30°10' W 093°19'0 0.0
2017-Sep-09 09:58N 30°10' W 093°19'0 0.0
2017-Sep-09 09:30N 30°10' W 093°19'0 0.0
2017-Sep-09 08:58N 30°10' W 093°19'0 0.0
2017-Sep-09 08:30N 30°10' W 093°19'0 0.0
2017-Sep-09 07:59N 30°10' W 093°19'0 0.0
2017-Sep-09 07:30N 30°10' W 093°19'0 0.0
2017-Sep-09 07:00N 30°10' W 093°19'0 0.0
2017-Sep-09 06:30N 30°10' W 093°19'0 0.0
2017-Sep-09 04:29N 30°10' W 093°19'0 0.0
2017-Sep-09 03:50N 30°10' W 093°19'0 0.0
2017-Sep-09 03:10N 30°10' W 093°19'0 0.0
2017-Sep-09 03:00N 30°10' W 093°19'0 0.0
2017-Sep-09 02:22N 30°10' W 093°19'0 0.0
2017-Sep-09 02:00N 30°10' W 093°19'0 0.0
2017-Sep-09 01:21N 30°10' W 093°19'0 0.0
2017-Sep-09 01:00N 30°10' W 093°19'0 0.0
2017-Sep-09 00:30N 30°10' W 093°19'0 0.0
2017-Sep-09 00:00N 30°10' W 093°19'0 0.0
2017-Sep-08 23:30N 30°10' W 093°19'0 0.0
2017-Sep-08 23:00N 30°10' W 093°19'0 0.0
2017-Sep-08 22:30N 30°10' W 093°19'0 0.0
2017-Sep-08 22:00N 30°10' W 093°19'0 0.0
2017-Sep-08 21:30N 30°10' W 093°19'0 0.0
2017-Sep-08 21:00N 30°10' W 093°19'1 1.2
2017-Sep-08 20:30N 30°10' W 093°19'2 4.7
2017-Sep-08 20:00N 30°07' W 093°20'2 4.0
2017-Sep-08 19:30N 30°05' W 093°20'1 1.9
2017-Sep-08 19:00N 30°05' W 093°20'2 3.6
2017-Sep-08 18:30N 30°04' W 093°22'0 0.9
2017-Sep-08 18:00N 30°04' W 093°21'0 0.0
2017-Sep-08 17:30N 30°04' W 093°21'1 1.0
2017-Sep-08 17:00N 30°04' W 093°22'0 0.0
2017-Sep-08 16:30N 30°04' W 093°22'0 0.6
2017-Sep-08 16:00N 30°04' W 093°22'0 0.4
2017-Sep-08 15:30N 30°04' W 093°21'0 0.0
2017-Sep-08 15:00N 30°04' W 093°21'0 0.0
2017-Sep-08 14:30N 30°04' W 093°21'0 0.0
2017-Sep-08 14:00N 30°04' W 093°21'0 0.0
2017-Sep-08 13:30N 30°04' W 093°21'0 0.0
2017-Sep-08 13:00N 30°04' W 093°21'0 0.0
2017-Sep-08 12:30N 30°04' W 093°21'0 0.0
2017-Sep-08 12:00N 30°04' W 093°21'0 0.0
2017-Sep-08 11:30N 30°04' W 093°21'0 0.0
2017-Sep-08 09:54N 30°04' W 093°21'0 0.0
2017-Sep-08 08:48N 30°04' W 093°21'0 0.0
2017-Sep-08 08:18N 30°04' W 093°21'0 0.0
2017-Sep-08 07:55N 30°04' W 093°21'0 0.0
2017-Sep-08 07:30N 30°04' W 093°21'0 0.0
2017-Sep-08 06:44N 30°04' W 093°21'0 0.0
2017-Sep-08 06:16N 30°04' W 093°21'0 0.0
2017-Sep-08 04:57N 30°04' W 093°21'0 0.0
2017-Sep-08 03:06N 30°04' W 093°21'0 0.0
2017-Sep-08 02:38N 30°04' W 093°21'0 0.0
2017-Sep-08 02:17N 30°04' W 093°21'0 0.0
2017-Sep-08 02:00N 30°04' W 093°21'0 0.0
2017-Sep-08 01:30N 30°04' W 093°21'0 0.0
2017-Sep-08 01:00N 30°04' W 093°21'0 0.0
2017-Sep-08 00:30N 30°04' W 093°21'0 0.0
2017-Sep-08 00:00N 30°04' W 093°21'0 0.0
2017-Sep-07 23:30N 30°04' W 093°21'0 0.0
2017-Sep-07 23:00N 30°04' W 093°21'2 3.8
2017-Sep-07 22:30N 30°05' W 093°20'2 4.9
2017-Sep-07 22:00N 30°05' W 093°17'0 0.4
2017-Sep-07 21:30N 30°05' W 093°17'1 2.1
2017-Sep-07 21:00N 30°05' W 093°18'1 1.4
2017-Sep-07 20:30N 30°06' W 093°18'0 0.0
2017-Sep-07 20:00N 30°06' W 093°18'0 0.0
2017-Sep-07 19:30N 30°06' W 093°18'0 0.0
2017-Sep-07 19:00N 30°06' W 093°18'0 0.0
2017-Sep-07 18:30N 30°06' W 093°18'0 0.0
2017-Sep-07 18:00N 30°06' W 093°18'1 2.2
2017-Sep-07 17:30N 30°06' W 093°19'3 5.7
2017-Sep-07 17:00N 30°04' W 093°22'4 7.6
2017-Sep-07 16:30N 30°04' W 093°26'1 1.8
2017-Sep-07 16:00N 30°04' W 093°25'2 4.8
2017-Sep-07 15:30N 30°04' W 093°22'0 0.7
2017-Sep-07 15:00N 30°04' W 093°22'0 0.0
2017-Sep-07 14:30N 30°04' W 093°22'0 0.0
2017-Sep-07 12:08N 30°04' W 093°22'0 0.0
2017-Sep-07 11:59N 30°04' W 093°22'0 0.0
2017-Sep-07 11:30N 30°04' W 093°22'0 0.0
2017-Sep-07 11:00N 30°04' W 093°22'0 0.0
2017-Sep-07 10:29N 30°04' W 093°22'0 0.0
2017-Sep-07 10:00N 30°04' W 093°22'0 0.0
2017-Sep-07 09:30N 30°04' W 093°22'0 0.0
2017-Sep-07 09:00N 30°04' W 093°22'0 0.0
2017-Sep-07 08:30N 30°04' W 093°22'0 0.0
2017-Sep-07 08:00N 30°04' W 093°22'0 0.0
2017-Sep-07 07:30N 30°04' W 093°22'0 0.0
2017-Sep-07 07:00N 30°04' W 093°22'0 0.0
2017-Sep-07 06:30N 30°04' W 093°22'0 0.0
2017-Sep-07 06:00N 30°04' W 093°22'0 0.0
2017-Sep-07 05:30N 30°04' W 093°22'0 0.0
2017-Sep-07 05:00N 30°04' W 093°22'0 0.0
2017-Sep-07 04:29N 30°04' W 093°22'0 0.0
2017-Sep-07 04:00N 30°04' W 093°22'0 0.0
2017-Sep-07 03:30N 30°04' W 093°22'0 0.0
2017-Sep-07 03:00N 30°04' W 093°22'0 0.0
2017-Sep-07 02:30N 30°04' W 093°22'0 0.0
2017-Sep-07 02:00N 30°04' W 093°22'0 0.0
2017-Sep-07 01:30N 30°04' W 093°22'0 0.0
2017-Sep-07 01:00N 30°04' W 093°22'0 0.0
2017-Sep-07 00:30N 30°04' W 093°22'0 0.0
2017-Sep-07 00:00N 30°04' W 093°22'0 0.0
2017-Sep-06 23:30N 30°04' W 093°22'0 0.0
2017-Sep-06 23:00N 30°04' W 093°22'0 0.0
2017-Sep-06 22:30N 30°04' W 093°22'0 0.0
2017-Sep-06 22:00N 30°04' W 093°22'0 0.0
2017-Sep-06 21:30N 30°04' W 093°22'0 0.0
2017-Sep-06 21:00N 30°04' W 093°22'0 0.0
2017-Sep-06 20:30N 30°04' W 093°22'0 0.0
2017-Sep-06 20:00N 30°04' W 093°22'0 0.0
2017-Sep-06 19:30N 30°04' W 093°22'0 0.0
2017-Sep-06 19:00N 30°04' W 093°22'0 0.0
2017-Sep-06 18:30N 30°04' W 093°22'0 0.0
2017-Sep-06 18:00N 30°04' W 093°22'0 0.0
2017-Sep-06 17:30N 30°04' W 093°22'0 0.0
2017-Sep-06 17:00N 30°04' W 093°22'0 0.0
2017-Sep-06 16:30N 30°04' W 093°22'0 0.0
2017-Sep-06 16:00N 30°04' W 093°22'0 0.0
2017-Sep-06 15:30N 30°04' W 093°22'0 0.0
2017-Sep-06 15:00N 30°04' W 093°22'0 0.0
2017-Sep-06 14:30N 30°04' W 093°22'0 0.0
2017-Sep-06 14:00N 30°04' W 093°22'0 0.0
2017-Sep-06 13:30N 30°04' W 093°22'0 0.0
2017-Sep-06 13:00N 30°04' W 093°22'0 0.0
2017-Sep-06 12:30N 30°04' W 093°22'0 0.0
2017-Sep-06 12:00N 30°04' W 093°22'0 0.0
2017-Sep-06 11:30N 30°04' W 093°22'0 0.0
2017-Sep-06 11:00N 30°04' W 093°22'0 0.0
2017-Sep-06 10:30N 30°04' W 093°22'0 0.0
2017-Sep-06 10:00N 30°04' W 093°22'0 0.0
2017-Sep-06 09:30N 30°04' W 093°22'0 0.0
2017-Sep-06 09:00N 30°04' W 093°22'0 0.0
2017-Sep-06 08:30N 30°04' W 093°22'0 0.0
2017-Sep-06 08:00N 30°04' W 093°22'0 0.0
2017-Sep-06 07:30N 30°04' W 093°22'0 0.0
2017-Sep-06 07:00N 30°04' W 093°22'0 0.0
2017-Sep-06 06:30N 30°04' W 093°22'0 0.0
2017-Sep-06 06:00N 30°04' W 093°22'0 0.0
2017-Sep-06 05:30N 30°04' W 093°22'0 0.0
2017-Sep-06 05:00N 30°04' W 093°22'0 0.0
2017-Sep-06 04:30N 30°04' W 093°22'0 0.0
2017-Sep-06 04:00N 30°04' W 093°22'0 0.0
2017-Sep-06 03:30N 30°04' W 093°22'0 0.0
2017-Sep-06 03:00N 30°04' W 093°22'0 0.0
2017-Sep-06 02:30N 30°04' W 093°22'0 0.0
2017-Sep-06 02:00N 30°04' W 093°22'0 0.0
2017-Sep-06 01:30N 30°04' W 093°22'0 0.0
2017-Sep-06 01:00N 30°04' W 093°22'0 0.0
2017-Sep-06 00:30N 30°04' W 093°22'0 0.0
2017-Sep-06 00:00N 30°04' W 093°22'0 0.0
2017-Sep-05 23:30N 30°04' W 093°22'0 0.0
2017-Sep-05 23:00N 30°04' W 093°22'0 0.0
2017-Sep-05 22:30N 30°04' W 093°22'0 0.0
2017-Sep-05 22:00N 30°04' W 093°22'0 0.0
2017-Sep-05 21:30N 30°04' W 093°22'0 0.0
2017-Sep-05 21:00N 30°04' W 093°22'0 0.0
2017-Sep-05 20:30N 30°04' W 093°22'0 0.0
2017-Sep-05 20:00N 30°04' W 093°22'0 0.0
2017-Sep-05 19:30N 30°04' W 093°22'0 0.0
2017-Sep-05 19:00N 30°04' W 093°22'0 0.0
2017-Sep-05 18:30N 30°04' W 093°22'0 0.0
2017-Sep-05 18:00N 30°04' W 093°22'0 0.0
2017-Sep-05 17:30N 30°04' W 093°22'0 0.0
2017-Sep-05 17:00N 30°04' W 093°22'0 0.0
2017-Sep-05 16:30N 30°04' W 093°22'0 0.0
2017-Sep-05 16:00N 30°04' W 093°22'0 0.0
2017-Sep-05 15:30N 30°04' W 093°22'0 0.0
2017-Sep-05 15:00N 30°04' W 093°22'0 0.0
2017-Sep-05 14:30N 30°04' W 093°22'0 0.0
2017-Sep-05 14:00N 30°04' W 093°22'0 0.0
2017-Sep-05 13:30N 30°04' W 093°22'0 0.0
2017-Sep-05 13:00N 30°04' W 093°22'0 0.0
2017-Sep-05 12:30N 30°04' W 093°22'0 0.0
2017-Sep-05 12:00N 30°04' W 093°22'0 0.0
2017-Sep-05 11:30N 30°04' W 093°22'0 0.0
2017-Sep-05 11:00N 30°04' W 093°22'0 0.0
2017-Sep-05 10:30N 30°04' W 093°22'0 0.0
2017-Sep-05 10:00N 30°04' W 093°22'0 0.0
2017-Sep-05 09:30N 30°04' W 093°22'0 0.0
2017-Sep-05 09:00N 30°04' W 093°22'0 0.0
2017-Sep-05 08:30N 30°04' W 093°22'0 0.0
2017-Sep-05 08:00N 30°04' W 093°22'0 0.0
2017-Sep-05 07:30N 30°04' W 093°22'0 0.0
2017-Sep-05 07:00N 30°04' W 093°22'0 0.0
2017-Sep-05 06:30N 30°04' W 093°22'0 0.0
2017-Sep-05 06:00N 30°04' W 093°22'0 0.0
2017-Sep-05 05:30N 30°04' W 093°22'0 0.0
2017-Sep-05 05:00N 30°04' W 093°22'0 0.0
2017-Sep-05 04:30N 30°04' W 093°22'0 0.0
2017-Sep-05 04:00N 30°04' W 093°22'0 0.0
2017-Sep-05 03:30N 30°04' W 093°22'0 0.0
2017-Sep-05 03:00N 30°04' W 093°22'0 0.0
2017-Sep-05 02:30N 30°04' W 093°22'0 0.0
2017-Sep-05 02:00N 30°04' W 093°22'0 0.0
2017-Sep-05 01:30N 30°04' W 093°22'0 0.0
2017-Sep-05 01:00N 30°04' W 093°22'0 0.0
2017-Sep-05 00:30N 30°04' W 093°22'0 0.0
2017-Sep-05 00:00N 30°04' W 093°22'0 0.0
2017-Sep-04 23:30N 30°04' W 093°22'0 0.0
2017-Sep-04 23:00N 30°04' W 093°22'0 0.0
2017-Sep-04 22:30N 30°04' W 093°22'0 0.0
2017-Sep-04 22:00N 30°04' W 093°22'0 0.0
2017-Sep-04 21:30N 30°04' W 093°22'0 0.0
2017-Sep-04 21:00N 30°04' W 093°22'0 0.0
2017-Sep-04 20:30N 30°04' W 093°22'0 0.0
2017-Sep-04 20:00N 30°04' W 093°22'0 0.0
2017-Sep-04 19:30N 30°04' W 093°22'0 0.1
2017-Sep-04 19:00N 30°04' W 093°22'0 0.7
2017-Sep-04 18:30N 30°04' W 093°22'0 0.0
2017-Sep-04 18:00N 30°04' W 093°22'0 1.0
2017-Sep-04 17:30N 30°04' W 093°23'0 0.4
2017-Sep-04 17:00N 30°04' W 093°23'0 0.0
2017-Sep-04 16:30N 30°04' W 093°23'0 0.0
2017-Sep-04 16:00N 30°04' W 093°23'  
Track history (hours):
 
Tides and Currents Weather Stations Pressure Air Temp Water Temp Dewpoint Dewpoint Depression Visibility Wind Speed Wind Dir Waves Ship Positions

Louise Cenac

Owner: Cenac Marine Services, Houma, LA. More information available from US FCC via Universal Licensing System and Coast Guard Vessel Documentation Center.

Last reported at 2017-Sep-14 15:44 UTC. Time now 2017-Sep-21 05:26 UTC.
Position N 30°03' W 093°43'.

Length 22 m; draft 3.3 m.

Type: Tug. MMSI: 367688280.

Date/timePositionNaut miles runAvg speedWind from/ knotsBaromVisibWave heightAir tempDewpointWater temp
2017-Sep-14 15:44N 30°03' W 093°43'2 6.5
2017-Sep-14 15:28N 30°04' W 093°41'3 6.7
2017-Sep-14 15:01N 30°04' W 093°38'3 5.9
2017-Sep-14 14:30N 30°04' W 093°34'3 5.6
2017-Sep-14 14:01N 30°04' W 093°31'3 5.7
2017-Sep-14 13:30N 30°04' W 093°28'3 5.5
2017-Sep-14 12:56N 30°04' W 093°24'2 4.8
2017-Sep-14 12:30N 30°04' W 093°22'2 3.8
2017-Sep-14 12:00N 30°05' W 093°20'2 4.1
2017-Sep-14 11:30N 30°06' W 093°19'2 4.9
2017-Sep-14 11:01N 30°04' W 093°16'1 2.3
2017-Sep-14 10:30N 30°03' W 093°16'1 2.0
2017-Sep-14 10:00N 30°02' W 093°16'0 0.0
2017-Sep-14 09:29N 30°03' W 093°16'0 0.1
2017-Sep-14 09:00N 30°02' W 093°16'0 0.4
2017-Sep-14 08:30N 30°02' W 093°15'2 4.7
2017-Sep-14 08:00N 30°01' W 093°14'3 5.8
2017-Sep-14 07:30N 29°58' W 093°12'3 5.9
2017-Sep-14 07:00N 29°56' W 093°09'3 5.9
2017-Sep-14 06:29N 29°56' W 093°06'  
2017-Sep-09 18:13N 29°56' W 093°02'2 7.0
2017-Sep-09 17:59N 29°56' W 093°04'2 3.7
2017-Sep-09 17:30N 29°56' W 093°06'3 6.8
2017-Sep-09 17:00N 29°56' W 093°10'4 7.0
2017-Sep-09 16:30N 29°59' W 093°12'3 6.6
2017-Sep-09 16:00N 30°02' W 093°14'3 6.3
2017-Sep-09 15:30N 30°04' W 093°16'3 6.0
2017-Sep-09 15:00N 30°06' W 093°19'4 7.1
2017-Sep-09 14:29N 30°09' W 093°20'1 2.1
2017-Sep-09 13:58N 30°10' W 093°19'0 0.0
2017-Sep-09 13:03N 30°10' W 093°19'0 0.1
2017-Sep-09 13:00N 30°10' W 093°19'0 0.0
2017-Sep-09 12:30N 30°10' W 093°19'0 0.0
2017-Sep-09 12:00N 30°10' W 093°19'0 0.0
2017-Sep-09 11:29N 30°10' W 093°19'0 0.0
2017-Sep-09 10:57N 30°10' W 093°19'0 0.0
2017-Sep-09 10:26N 30°10' W 093°19'0 0.0
2017-Sep-09 09:58N 30°10' W 093°19'0 0.0
2017-Sep-09 09:30N 30°10' W 093°19'0 0.0
2017-Sep-09 08:58N 30°10' W 093°19'0 0.0
2017-Sep-09 08:30N 30°10' W 093°19'0 0.0
2017-Sep-09 07:59N 30°10' W 093°19'0 0.0
2017-Sep-09 07:30N 30°10' W 093°19'0 0.0
2017-Sep-09 07:00N 30°10' W 093°19'0 0.0
2017-Sep-09 06:30N 30°10' W 093°19'0 0.0
2017-Sep-09 04:29N 30°10' W 093°19'0 0.0
2017-Sep-09 03:50N 30°10' W 093°19'0 0.0
2017-Sep-09 03:10N 30°10' W 093°19'0 0.0
2017-Sep-09 03:00N 30°10' W 093°19'0 0.0
2017-Sep-09 02:22N 30°10' W 093°19'0 0.0
2017-Sep-09 02:00N 30°10' W 093°19'0 0.0
2017-Sep-09 01:21N 30°10' W 093°19'0 0.0
2017-Sep-09 01:00N 30°10' W 093°19'0 0.0
2017-Sep-09 00:30N 30°10' W 093°19'0 0.0
2017-Sep-09 00:00N 30°10' W 093°19'0 0.0
2017-Sep-08 23:30N 30°10' W 093°19'0 0.0
2017-Sep-08 23:00N 30°10' W 093°19'0 0.0
2017-Sep-08 22:30N 30°10' W 093°19'0 0.0
2017-Sep-08 22:00N 30°10' W 093°19'0 0.0
2017-Sep-08 21:30N 30°10' W 093°19'0 0.0
2017-Sep-08 21:00N 30°10' W 093°19'1 1.2
2017-Sep-08 20:30N 30°10' W 093°19'2 4.7
2017-Sep-08 20:00N 30°07' W 093°20'2 4.0
2017-Sep-08 19:30N 30°05' W 093°20'1 1.9
2017-Sep-08 19:00N 30°05' W 093°20'2 3.6
2017-Sep-08 18:30N 30°04' W 093°22'0 0.9
2017-Sep-08 18:00N 30°04' W 093°21'0 0.0
2017-Sep-08 17:30N 30°04' W 093°21'1 1.0
2017-Sep-08 17:00N 30°04' W 093°22'0 0.0
2017-Sep-08 16:30N 30°04' W 093°22'0 0.6
2017-Sep-08 16:00N 30°04' W 093°22'0 0.4
2017-Sep-08 15:30N 30°04' W 093°21'0 0.0
2017-Sep-08 15:00N 30°04' W 093°21'0 0.0
2017-Sep-08 14:30N 30°04' W 093°21'0 0.0
2017-Sep-08 14:00N 30°04' W 093°21'0 0.0
2017-Sep-08 13:30N 30°04' W 093°21'0 0.0
2017-Sep-08 13:00N 30°04' W 093°21'0 0.0
2017-Sep-08 12:30N 30°04' W 093°21'0 0.0
2017-Sep-08 12:00N 30°04' W 093°21'0 0.0
2017-Sep-08 11:30N 30°04' W 093°21'0 0.0
2017-Sep-08 09:54N 30°04' W 093°21'0 0.0
2017-Sep-08 08:48N 30°04' W 093°21'0 0.0
2017-Sep-08 08:18N 30°04' W 093°21'0 0.0
2017-Sep-08 07:55N 30°04' W 093°21'0 0.0
2017-Sep-08 07:30N 30°04' W 093°21'0 0.0
2017-Sep-08 06:44N 30°04' W 093°21'0 0.0
2017-Sep-08 06:16N 30°04' W 093°21'0 0.0
2017-Sep-08 04:57N 30°04' W 093°21'0 0.0
2017-Sep-08 03:06N 30°04' W 093°21'0 0.0
2017-Sep-08 02:38N 30°04' W 093°21'0 0.0
2017-Sep-08 02:17N 30°04' W 093°21'0 0.0
2017-Sep-08 02:00N 30°04' W 093°21'0 0.0
2017-Sep-08 01:30N 30°04' W 093°21'0 0.0
2017-Sep-08 01:00N 30°04' W 093°21'0 0.0
2017-Sep-08 00:30N 30°04' W 093°21'0 0.0
2017-Sep-08 00:00N 30°04' W 093°21'0 0.0
2017-Sep-07 23:30N 30°04' W 093°21'0 0.0
2017-Sep-07 23:00N 30°04' W 093°21'2 3.8
2017-Sep-07 22:30N 30°05' W 093°20'2 4.9
2017-Sep-07 22:00N 30°05' W 093°17'0 0.4
2017-Sep-07 21:30N 30°05' W 093°17'1 2.1
2017-Sep-07 21:00N 30°05' W 093°18'1 1.4
2017-Sep-07 20:30N 30°06' W 093°18'0 0.0
2017-Sep-07 20:00N 30°06' W 093°18'0 0.0
2017-Sep-07 19:30N 30°06' W 093°18'0 0.0
2017-Sep-07 19:00N 30°06' W 093°18'0 0.0
2017-Sep-07 18:30N 30°06' W 093°18'0 0.0
2017-Sep-07 18:00N 30°06' W 093°18'1 2.2
2017-Sep-07 17:30N 30°06' W 093°19'3 5.7
2017-Sep-07 17:00N 30°04' W 093°22'4 7.6
2017-Sep-07 16:30N 30°04' W 093°26'1 1.8
2017-Sep-07 16:00N 30°04' W 093°25'2 4.8
2017-Sep-07 15:30N 30°04' W 093°22'0 0.7
2017-Sep-07 15:00N 30°04' W 093°22'0 0.0
2017-Sep-07 14:30N 30°04' W 093°22'0 0.0
2017-Sep-07 12:08N 30°04' W 093°22'0 0.0
2017-Sep-07 11:59N 30°04' W 093°22'0 0.0
2017-Sep-07 11:30N 30°04' W 093°22'0 0.0
2017-Sep-07 11:00N 30°04' W 093°22'0 0.0
2017-Sep-07 10:29N 30°04' W 093°22'0 0.0
2017-Sep-07 10:00N 30°04' W 093°22'0 0.0
2017-Sep-07 09:30N 30°04' W 093°22'0 0.0
2017-Sep-07 09:00N 30°04' W 093°22'0 0.0
2017-Sep-07 08:30N 30°04' W 093°22'0 0.0
2017-Sep-07 08:00N 30°04' W 093°22'0 0.0
2017-Sep-07 07:30N 30°04' W 093°22'0 0.0
2017-Sep-07 07:00N 30°04' W 093°22'0 0.0
2017-Sep-07 06:30N 30°04' W 093°22'0 0.0
2017-Sep-07 06:00N 30°04' W 093°22'0 0.0
2017-Sep-07 05:30N 30°04' W 093°22'0 0.0
2017-Sep-07 05:00N 30°04' W 093°22'0 0.0
2017-Sep-07 04:29N 30°04' W 093°22'0 0.0
2017-Sep-07 04:00N 30°04' W 093°22'0 0.0
2017-Sep-07 03:30N 30°04' W 093°22'0 0.0
2017-Sep-07 03:00N 30°04' W 093°22'0 0.0
2017-Sep-07 02:30N 30°04' W 093°22'0 0.0
2017-Sep-07 02:00N 30°04' W 093°22'0 0.0
2017-Sep-07 01:30N 30°04' W 093°22'0 0.0
2017-Sep-07 01:00N 30°04' W 093°22'0 0.0
2017-Sep-07 00:30N 30°04' W 093°22'0 0.0
2017-Sep-07 00:00N 30°04' W 093°22'0 0.0
2017-Sep-06 23:30N 30°04' W 093°22'0 0.0
2017-Sep-06 23:00N 30°04' W 093°22'0 0.0
2017-Sep-06 22:30N 30°04' W 093°22'0 0.0
2017-Sep-06 22:00N 30°04' W 093°22'0 0.0
2017-Sep-06 21:30N 30°04' W 093°22'0 0.0
2017-Sep-06 21:00N 30°04' W 093°22'0 0.0
2017-Sep-06 20:30N 30°04' W 093°22'0 0.0
2017-Sep-06 20:00N 30°04' W 093°22'0 0.0
2017-Sep-06 19:30N 30°04' W 093°22'0 0.0
2017-Sep-06 19:00N 30°04' W 093°22'0 0.0
2017-Sep-06 18:30N 30°04' W 093°22'0 0.0
2017-Sep-06 18:00N 30°04' W 093°22'0 0.0
2017-Sep-06 17:30N 30°04' W 093°22'0 0.0
2017-Sep-06 17:00N 30°04' W 093°22'0 0.0
2017-Sep-06 16:30N 30°04' W 093°22'0 0.0
2017-Sep-06 16:00N 30°04' W 093°22'0 0.0
2017-Sep-06 15:30N 30°04' W 093°22'0 0.0
2017-Sep-06 15:00N 30°04' W 093°22'0 0.0
2017-Sep-06 14:30N 30°04' W 093°22'0 0.0
2017-Sep-06 14:00N 30°04' W 093°22'0 0.0
2017-Sep-06 13:30N 30°04' W 093°22'0 0.0
2017-Sep-06 13:00N 30°04' W 093°22'0 0.0
2017-Sep-06 12:30N 30°04' W 093°22'0 0.0
2017-Sep-06 12:00N 30°04' W 093°22'0 0.0
2017-Sep-06 11:30N 30°04' W 093°22'0 0.0
2017-Sep-06 11:00N 30°04' W 093°22'0 0.0
2017-Sep-06 10:30N 30°04' W 093°22'0 0.0
2017-Sep-06 10:00N 30°04' W 093°22'0 0.0
2017-Sep-06 09:30N 30°04' W 093°22'0 0.0
2017-Sep-06 09:00N 30°04' W 093°22'0 0.0
2017-Sep-06 08:30N 30°04' W 093°22'0 0.0
2017-Sep-06 08:00N 30°04' W 093°22'0 0.0
2017-Sep-06 07:30N 30°04' W 093°22'0 0.0
2017-Sep-06 07:00N 30°04' W 093°22'0 0.0
2017-Sep-06 06:30N 30°04' W 093°22'0 0.0
2017-Sep-06 06:00N 30°04' W 093°22'0 0.0
2017-Sep-06 05:30N 30°04' W 093°22'0 0.0
2017-Sep-06 05:00N 30°04' W 093°22'0 0.0
2017-Sep-06 04:30N 30°04' W 093°22'0 0.0
2017-Sep-06 04:00N 30°04' W 093°22'0 0.0
2017-Sep-06 03:30N 30°04' W 093°22'0 0.0
2017-Sep-06 03:00N 30°04' W 093°22'0 0.0
2017-Sep-06 02:30N 30°04' W 093°22'0 0.0
2017-Sep-06 02:00N 30°04' W 093°22'0 0.0
2017-Sep-06 01:30N 30°04' W 093°22'0 0.0
2017-Sep-06 01:00N 30°04' W 093°22'0 0.0
2017-Sep-06 00:30N 30°04' W 093°22'0 0.0
2017-Sep-06 00:00N 30°04' W 093°22'0 0.0
2017-Sep-05 23:30N 30°04' W 093°22'0 0.0
2017-Sep-05 23:00N 30°04' W 093°22'0 0.0
2017-Sep-05 22:30N 30°04' W 093°22'0 0.0
2017-Sep-05 22:00N 30°04' W 093°22'0 0.0
2017-Sep-05 21:30N 30°04' W 093°22'0 0.0
2017-Sep-05 21:00N 30°04' W 093°22'0 0.0
2017-Sep-05 20:30N 30°04' W 093°22'0 0.0
2017-Sep-05 20:00N 30°04' W 093°22'0 0.0
2017-Sep-05 19:30N 30°04' W 093°22'0 0.0
2017-Sep-05 19:00N 30°04' W 093°22'0 0.0
2017-Sep-05 18:30N 30°04' W 093°22'0 0.0
2017-Sep-05 18:00N 30°04' W 093°22'0 0.0
2017-Sep-05 17:30N 30°04' W 093°22'0 0.0
2017-Sep-05 17:00N 30°04' W 093°22'0 0.0
2017-Sep-05 16:30N 30°04' W 093°22'0 0.0
2017-Sep-05 16:00N 30°04' W 093°22'0 0.0
2017-Sep-05 15:30N 30°04' W 093°22'0 0.0
2017-Sep-05 15:00N 30°04' W 093°22'0 0.0
2017-Sep-05 14:30N 30°04' W 093°22'0 0.0
2017-Sep-05 14:00N 30°04' W 093°22'0 0.0
2017-Sep-05 13:30N 30°04' W 093°22'0 0.0
2017-Sep-05 13:00N 30°04' W 093°22'0 0.0
2017-Sep-05 12:30N 30°04' W 093°22'0 0.0
2017-Sep-05 12:00N 30°04' W 093°22'0 0.0
2017-Sep-05 11:30N 30°04' W 093°22'0 0.0
2017-Sep-05 11:00N 30°04' W 093°22'0 0.0
2017-Sep-05 10:30N 30°04' W 093°22'0 0.0
2017-Sep-05 10:00N 30°04' W 093°22'0 0.0
2017-Sep-05 09:30N 30°04' W 093°22'0 0.0
2017-Sep-05 09:00N 30°04' W 093°22'0 0.0
2017-Sep-05 08:30N 30°04' W 093°22'0 0.0
2017-Sep-05 08:00N 30°04' W 093°22'0 0.0
2017-Sep-05 07:30N 30°04' W 093°22'0 0.0
2017-Sep-05 07:00N 30°04' W 093°22'0 0.0
2017-Sep-05 06:30N 30°04' W 093°22'0 0.0
2017-Sep-05 06:00N 30°04' W 093°22'0 0.0
2017-Sep-05 05:30N 30°04' W 093°22'0 0.0
2017-Sep-05 05:00N 30°04' W 093°22'0 0.0
2017-Sep-05 04:30N 30°04' W 093°22'0 0.0
2017-Sep-05 04:00N 30°04' W 093°22'0 0.0
2017-Sep-05 03:30N 30°04' W 093°22'0 0.0
2017-Sep-05 03:00N 30°04' W 093°22'0 0.0
2017-Sep-05 02:30N 30°04' W 093°22'0 0.0
2017-Sep-05 02:00N 30°04' W 093°22'0 0.0
2017-Sep-05 01:30N 30°04' W 093°22'0 0.0
2017-Sep-05 01:00N 30°04' W 093°22'0 0.0
2017-Sep-05 00:30N 30°04' W 093°22'0 0.0
2017-Sep-05 00:00N 30°04' W 093°22'0 0.0
2017-Sep-04 23:30N 30°04' W 093°22'0 0.0
2017-Sep-04 23:00N 30°04' W 093°22'0 0.0
2017-Sep-04 22:30N 30°04' W 093°22'0 0.0
2017-Sep-04 22:00N 30°04' W 093°22'0 0.0
2017-Sep-04 21:30N 30°04' W 093°22'0 0.0
2017-Sep-04 21:00N 30°04' W 093°22'0 0.0
2017-Sep-04 20:30N 30°04' W 093°22'0 0.0
2017-Sep-04 20:00N 30°04' W 093°22'0 0.0
2017-Sep-04 19:30N 30°04' W 093°22'0 0.1
2017-Sep-04 19:00N 30°04' W 093°22'0 0.7
2017-Sep-04 18:30N 30°04' W 093°22'0 0.0
2017-Sep-04 18:00N 30°04' W 093°22'0 1.0
2017-Sep-04 17:30N 30°04' W 093°23'0 0.4
2017-Sep-04 17:00N 30°04' W 093°23'0 0.0
2017-Sep-04 16:30N 30°04' W 093°23'0 0.0
2017-Sep-04 16:00N 30°04' W 093°23'  

Dump ship's entire track history